createdAt,value
2022-10-04T00:01:01.656Z,82.48
2022-10-04T00:03:33.700Z,81.67
2022-10-04T00:06:03.050Z,81.97
2022-10-04T00:08:38.733Z,81.65
2022-10-04T00:11:14.504Z,82.47
2022-10-04T00:13:47.755Z,81.42
2022-10-04T00:16:24.700Z,81.85
2022-10-04T00:19:03.063Z,81.01
2022-10-04T00:22:10.216Z,81.81
2022-10-04T00:24:39.489Z,81.74
2022-10-04T00:27:21.509Z,82.40
2022-10-04T00:30:10.644Z,81.43
2022-10-04T00:33:02.098Z,81.49
2022-10-04T00:35:51.657Z,80.68
2022-10-04T00:38:28.079Z,80.88
2022-10-04T00:41:02.810Z,80.68
2022-10-04T00:43:34.722Z,80.47
2022-10-04T00:46:06.920Z,80.59
2022-10-04T00:48:41.995Z,80.09
2022-10-04T00:51:23.488Z,80.31
2022-10-04T00:54:02.322Z,81.11
2022-10-04T00:56:37.988Z,81.33
2022-10-04T00:59:26.044Z,79.43
2022-10-04T01:01:57.663Z,80.08
2022-10-04T01:04:36.893Z,80.39
2022-10-04T01:07:06.959Z,80.89
2022-10-04T01:09:40.135Z,80.75
2022-10-04T01:12:15.226Z,80.14
2022-10-04T01:14:55.829Z,79.75
2022-10-04T01:17:23.995Z,79.71
2022-10-04T01:19:54.576Z,79.39
2022-10-04T01:22:36.265Z,79.63
2022-10-04T01:25:05.209Z,80.12
2022-10-04T01:27:36.571Z,80.18
2022-10-04T01:30:09.470Z,79.97
2022-10-04T01:32:39.744Z,80.54
2022-10-04T01:35:08.781Z,81.01
2022-10-04T01:37:39.395Z,80.10
2022-10-04T01:40:09.924Z,80.20
2022-10-04T01:42:44.601Z,81.21
2022-10-04T01:45:20.434Z,79.81
2022-10-04T01:47:55.047Z,80.38
2022-10-04T01:50:31.167Z,80.59
2022-10-04T01:53:09.028Z,80.02
2022-10-04T01:55:41.222Z,80.30
2022-10-04T01:58:13.045Z,79.96
2022-10-04T02:00:51.165Z,79.32
2022-10-04T02:03:23.087Z,79.88
2022-10-04T02:05:54.353Z,80.52
2022-10-04T02:08:28.636Z,80.51
2022-10-04T02:10:58.021Z,81.36
2022-10-04T02:13:29.864Z,80.59
2022-10-04T02:15:59.500Z,79.78
2022-10-04T02:18:28.847Z,79.62
2022-10-04T02:20:57.576Z,80.20
2022-10-04T02:23:28.649Z,80.14
2022-10-04T02:25:56.758Z,78.61
2022-10-04T02:28:24.767Z,79.05
2022-10-04T02:31:12.098Z,79.83
2022-10-04T02:33:42.713Z,78.89
2022-10-04T02:36:11.878Z,78.86
2022-10-04T02:38:46.834Z,78.44
2022-10-04T02:41:27.776Z,78.35
2022-10-04T02:43:59.255Z,77.75
2022-10-04T02:46:30.402Z,77.77
2022-10-04T02:49:01.199Z,78.16
2022-10-04T02:51:34.996Z,78.51
2022-10-04T02:54:17.492Z,78.01
2022-10-04T02:56:45.953Z,79.13
2022-10-04T02:59:17.413Z,80.19
2022-10-04T03:01:53.730Z,79.80
2022-10-04T03:04:26.407Z,80.65
2022-10-04T03:06:55.998Z,81.56
2022-10-04T03:09:29.620Z,81.49
2022-10-04T03:11:58.238Z,81.89
2022-10-04T03:14:28.852Z,82.40
2022-10-04T03:17:00.637Z,82.70
2022-10-04T03:19:31.137Z,81.52
2022-10-04T03:22:03.183Z,83.04
2022-10-04T03:24:35.317Z,83.08
2022-10-04T03:27:07.000Z,82.78
2022-10-04T03:29:35.842Z,82.66
2022-10-04T03:32:05.756Z,82.84
2022-10-04T03:34:37.781Z,82.68
2022-10-04T03:37:09.293Z,82.71
2022-10-04T03:39:41.579Z,82.89
2022-10-04T03:42:13.807Z,82.23
2022-10-04T03:44:42.395Z,83.09
2022-10-04T03:47:12.283Z,82.93
2022-10-04T03:49:41.991Z,83.48
2022-10-04T03:52:18.960Z,83.97
2022-10-04T03:54:49.050Z,83.66
2022-10-04T03:57:17.169Z,83.35
2022-10-04T03:59:45.528Z,81.98
2022-10-04T04:02:20.756Z,82.63
2022-10-04T04:04:56.805Z,81.89
2022-10-04T04:07:30.193Z,82.43
2022-10-04T04:10:02.913Z,83.07
2022-10-04T04:12:39.097Z,82.22
2022-10-04T04:15:11.621Z,81.84
2022-10-04T04:17:42.044Z,82.37
2022-10-04T04:20:23.340Z,82.25
2022-10-04T04:23:00.154Z,81.55
2022-10-04T04:25:33.056Z,81.10
2022-10-04T04:28:14.010Z,80.48
2022-10-04T04:30:47.938Z,80.17
2022-10-04T04:33:24.715Z,80.25
2022-10-04T04:35:57.302Z,80.36
2022-10-04T04:38:26.557Z,80.04
2022-10-04T04:40:57.346Z,81.19
2022-10-04T04:43:27.609Z,80.21
2022-10-04T04:46:25.657Z,80.21
2022-10-04T04:48:49.440Z,80.15
2022-10-04T04:51:21.920Z,81.05
2022-10-04T04:53:51.745Z,80.70
2022-10-04T04:56:24.401Z,80.71
2022-10-04T04:58:55.856Z,80.53
2022-10-04T05:01:26.846Z,81.47
2022-10-04T05:04:02.222Z,81.46
2022-10-04T05:06:31.731Z,81.79
2022-10-04T05:08:59.679Z,81.30
2022-10-04T05:11:32.802Z,81.11
2022-10-04T05:14:06.106Z,81.82
2022-10-04T05:16:38.641Z,80.92
2022-10-04T05:19:14.000Z,81.10
2022-10-04T05:21:45.459Z,80.73
2022-10-04T05:24:20.869Z,80.61
2022-10-04T05:26:53.690Z,79.47
2022-10-04T05:29:25.188Z,79.88
2022-10-04T05:32:03.371Z,78.20
2022-10-04T05:34:33.762Z,78.27
2022-10-04T05:37:16.823Z,79.24
2022-10-04T05:39:49.388Z,79.96
2022-10-04T05:42:23.513Z,79.37
2022-10-04T05:44:53.268Z,78.23
2022-10-04T05:47:24.143Z,77.79
2022-10-04T05:49:55.562Z,77.71
2022-10-04T05:52:30.496Z,78.39
2022-10-04T05:55:23.220Z,77.97
2022-10-04T05:58:06.746Z,79.06
2022-10-04T06:00:43.177Z,78.10
2022-10-04T06:03:25.383Z,78.01
2022-10-04T06:05:56.988Z,78.02
2022-10-04T06:08:38.184Z,78.19
2022-10-04T06:11:38.818Z,77.84
2022-10-04T06:14:31.810Z,77.36
2022-10-04T06:17:15.782Z,76.76
2022-10-04T06:20:21.081Z,76.39
2022-10-04T06:22:52.345Z,76.66
2022-10-04T06:25:27.321Z,76.47
2022-10-04T06:28:01.568Z,75.93
2022-10-04T06:30:42.292Z,75.54
2022-10-04T06:33:36.284Z,75.56
2022-10-04T06:36:19.381Z,75.99
2022-10-04T06:39:04.240Z,76.49
2022-10-04T06:41:48.351Z,75.50
2022-10-04T06:44:51.419Z,76.04
2022-10-04T06:47:42.166Z,76.68
2022-10-04T06:50:26.147Z,75.94
2022-10-04T06:53:16.689Z,75.52
2022-10-04T06:56:07.322Z,76.18
2022-10-04T06:59:28.806Z,75.78
2022-10-04T07:02:00.034Z,76.09
2022-10-04T07:05:06.587Z,76.20
2022-10-04T07:07:37.951Z,76.42
2022-10-04T07:10:32.205Z,75.55
2022-10-04T07:13:12.594Z,75.69
2022-10-04T07:15:48.285Z,75.87
2022-10-04T07:18:23.180Z,76.40
2022-10-04T07:21:00.300Z,76.05
2022-10-04T07:23:32.739Z,75.27
2022-10-04T07:26:05.308Z,76.03
2022-10-04T07:28:58.834Z,76.34
2022-10-04T07:31:29.306Z,75.22
2022-10-04T07:34:02.277Z,75.78
2022-10-04T07:36:39.774Z,76.23
2022-10-04T07:39:14.372Z,76.21
2022-10-04T07:41:49.948Z,75.84
2022-10-04T07:44:27.845Z,75.63
2022-10-04T07:47:01.722Z,75.78
2022-10-04T07:49:32.085Z,76.25
2022-10-04T07:52:25.709Z,75.96
2022-10-04T07:55:05.313Z,75.61
2022-10-04T07:57:45.008Z,75.26
2022-10-04T08:00:18.711Z,76.23
2022-10-04T08:03:04.611Z,75.84
2022-10-04T08:05:38.667Z,75.95
2022-10-04T08:08:30.291Z,75.38
2022-10-04T08:11:18.048Z,75.90
2022-10-04T08:13:59.624Z,75.56
2022-10-04T08:16:36.906Z,74.20
2022-10-04T08:19:36.124Z,74.22
2022-10-04T08:22:12.468Z,72.80
2022-10-04T08:24:53.609Z,72.42
2022-10-04T08:27:40.041Z,73.06
2022-10-04T08:30:15.030Z,71.98
2022-10-04T08:33:06.437Z,73.40
2022-10-04T08:35:37.716Z,72.98
2022-10-04T08:38:36.812Z,72.63
2022-10-04T08:41:55.330Z,73.11
2022-10-04T08:45:07.933Z,70.78
2022-10-04T08:48:18.268Z,70.99
2022-10-04T08:51:16.640Z,69.73
2022-10-04T08:54:35.605Z,68.79
2022-10-04T08:57:22.374Z,68.27
2022-10-04T09:00:09.703Z,68.72
2022-10-04T09:03:35.461Z,68.46
2022-10-04T09:06:27.607Z,69.30
2022-10-04T09:09:31.412Z,69.59
2022-10-04T09:12:29.403Z,69.29
2022-10-04T09:15:21.436Z,69.38
2022-10-04T09:18:00.645Z,68.97
2022-10-04T09:20:46.065Z,67.01
2022-10-04T09:23:49.207Z,67.88
2022-10-04T09:26:23.251Z,68.51
2022-10-04T09:29:21.870Z,67.27
2022-10-04T09:32:13.946Z,68.41
2022-10-04T09:35:03.941Z,67.28
2022-10-04T09:37:44.664Z,67.40
2022-10-04T09:40:37.573Z,65.10
2022-10-04T09:43:30.667Z,65.10
2022-10-04T09:46:29.587Z,67.00
2022-10-04T09:49:14.137Z,66.98
2022-10-04T09:52:02.997Z,66.56
2022-10-04T09:54:55.090Z,66.35
2022-10-04T09:57:33.726Z,68.56
2022-10-04T10:00:23.336Z,66.10
2022-10-04T10:03:20.224Z,66.28
2022-10-04T10:06:03.279Z,66.04
2022-10-04T10:08:41.977Z,66.25
2022-10-04T10:11:34.881Z,67.46
2022-10-04T10:14:34.417Z,66.54
2022-10-04T10:17:15.248Z,66.96
2022-10-04T10:20:04.495Z,65.66
2022-10-04T10:22:56.921Z,65.04
2022-10-04T10:25:41.553Z,65.63
2022-10-04T10:28:35.429Z,64.85
2022-10-04T10:31:23.050Z,64.42
2022-10-04T10:34:23.094Z,64.11
2022-10-04T10:37:09.056Z,63.32
2022-10-04T10:40:04.094Z,63.18
2022-10-04T10:43:04.347Z,63.10
2022-10-04T10:45:58.906Z,62.72
2022-10-04T10:48:43.877Z,62.37
2022-10-04T10:51:15.182Z,63.67
2022-10-04T10:54:27.142Z,63.34
2022-10-04T10:57:06.076Z,61.76
2022-10-04T11:00:14.109Z,63.95
2022-10-04T11:03:20.504Z,64.95
2022-10-04T11:06:14.131Z,61.99
2022-10-04T11:09:32.774Z,63.12
2022-10-04T11:12:28.383Z,63.93
2022-10-04T11:15:34.938Z,63.11
2022-10-04T11:18:50.134Z,64.56
2022-10-04T11:22:07.273Z,64.36
2022-10-04T11:25:06.374Z,63.67
2022-10-04T11:27:51.835Z,64.20
2022-10-04T11:30:25.018Z,61.75
2022-10-04T11:33:24.641Z,60.02
2022-10-04T11:36:08.164Z,58.91
2022-10-04T11:38:54.245Z,59.57
2022-10-04T11:41:35.229Z,58.27
2022-10-04T11:44:46.758Z,57.76
2022-10-04T11:47:26.426Z,60.15
2022-10-04T11:50:08.709Z,59.63
2022-10-04T11:52:52.369Z,60.45
2022-10-04T11:55:31.191Z,60.12
2022-10-04T11:58:11.752Z,60.36
2022-10-04T12:01:08.264Z,61.48
2022-10-04T12:03:56.627Z,61.08
2022-10-04T12:06:51.743Z,60.80
2022-10-04T12:09:25.803Z,60.80
2022-10-04T12:12:40.186Z,61.11
2022-10-04T12:15:26.110Z,60.32
2022-10-04T12:18:26.640Z,59.68
2022-10-04T12:21:18.817Z,57.10
2022-10-04T12:24:04.260Z,59.37
2022-10-04T12:27:02.845Z,57.25
2022-10-04T12:30:04.450Z,55.38
2022-10-04T12:32:38.382Z,55.45
2022-10-04T12:35:23.652Z,56.56
2022-10-04T12:38:22.072Z,56.28
2022-10-04T12:41:00.880Z,56.67
2022-10-04T12:43:37.000Z,56.20
2022-10-04T12:46:22.287Z,56.81
2022-10-04T12:49:03.761Z,57.50
2022-10-04T12:51:50.885Z,56.69
2022-10-04T12:54:39.644Z,58.65
2022-10-04T12:57:26.127Z,58.62
2022-10-04T13:00:00.931Z,57.33
2022-10-04T13:02:52.625Z,55.85
2022-10-04T13:05:27.650Z,55.93
2022-10-04T13:08:20.267Z,57.37
2022-10-04T13:11:02.400Z,57.63
2022-10-04T13:13:49.122Z,55.33
2022-10-04T13:19:24.283Z,56.56
2022-10-04T13:22:37.867Z,55.55
2022-10-04T13:25:47.147Z,55.68
2022-10-04T13:28:24.601Z,56.51
2022-10-04T13:31:04.223Z,56.64
2022-10-04T13:33:43.424Z,56.60
2022-10-04T13:36:18.765Z,55.54
2022-10-04T13:39:18.080Z,57.03
2022-10-04T13:42:21.750Z,54.00
2022-10-04T13:45:24.252Z,56.97
2022-10-04T13:48:21.947Z,54.50
2022-10-04T13:51:11.555Z,56.17
2022-10-04T13:54:05.236Z,55.89
2022-10-04T13:56:54.816Z,56.63
2022-10-04T13:59:35.003Z,56.52
2022-10-04T14:02:36.339Z,54.91
2022-10-04T14:05:49.644Z,56.61
2022-10-04T14:08:36.746Z,55.89
2022-10-04T14:11:49.757Z,57.08
2022-10-04T14:14:43.033Z,55.99
2022-10-04T14:17:43.496Z,55.01
2022-10-04T14:20:39.039Z,55.28
2022-10-04T14:23:33.797Z,54.06
2022-10-04T14:26:36.526Z,55.26
2022-10-04T14:29:46.297Z,56.73
2022-10-04T14:32:59.157Z,56.72
2022-10-04T14:35:30.975Z,56.39
2022-10-04T14:38:31.453Z,56.97
2022-10-04T14:41:20.449Z,55.84
2022-10-04T14:44:31.265Z,55.40
2022-10-04T14:47:16.895Z,55.44
2022-10-04T14:50:01.051Z,54.97
2022-10-04T14:52:44.536Z,57.83
2022-10-04T14:55:34.574Z,57.18
2022-10-04T14:58:18.705Z,57.32
2022-10-04T15:01:08.705Z,54.69
2022-10-04T15:03:46.006Z,57.13
2022-10-04T15:06:26.060Z,58.14
2022-10-04T15:09:27.522Z,55.46
2022-10-04T15:12:25.630Z,55.29
2022-10-04T15:15:32.206Z,56.46
2022-10-04T15:18:04.718Z,56.72
2022-10-04T15:20:38.951Z,56.17
2022-10-04T15:23:18.196Z,57.98
2022-10-04T15:25:48.361Z,57.14
2022-10-04T15:28:46.983Z,58.58
2022-10-04T15:31:23.894Z,57.52
2022-10-04T15:34:03.025Z,57.81
2022-10-04T15:37:15.658Z,57.45
2022-10-04T15:40:09.513Z,57.81
2022-10-04T15:42:37.696Z,58.10
2022-10-04T15:45:32.386Z,57.33
2022-10-04T15:48:24.783Z,57.41
2022-10-04T15:51:04.279Z,57.25
2022-10-04T15:53:48.942Z,57.59
2022-10-04T15:56:32.390Z,58.68
2022-10-04T15:59:28.670Z,57.90
2022-10-04T16:02:26.625Z,59.73
2022-10-04T16:05:07.113Z,58.28
2022-10-04T16:07:51.596Z,57.78
2022-10-04T16:10:26.648Z,58.74
2022-10-04T16:13:18.526Z,58.54
2022-10-04T16:15:49.513Z,59.26
2022-10-04T16:18:40.458Z,59.56
2022-10-04T16:21:20.949Z,59.94
2022-10-04T16:23:49.117Z,60.88
2022-10-04T16:27:00.856Z,61.11
2022-10-04T16:29:36.570Z,60.83
2022-10-04T16:32:14.027Z,60.01
2022-10-04T16:34:51.224Z,61.19
2022-10-04T16:37:32.519Z,61.67
2022-10-04T16:40:05.567Z,61.66
2022-10-04T16:42:53.746Z,61.64
2022-10-04T16:45:42.937Z,62.03
2022-10-04T16:48:26.943Z,62.59
2022-10-04T16:51:22.059Z,62.76
2022-10-04T16:53:54.492Z,63.78
2022-10-04T16:56:24.266Z,61.82
2022-10-04T16:58:56.814Z,63.31
2022-10-04T17:02:16.973Z,63.98
2022-10-04T17:05:07.978Z,63.79
2022-10-04T17:07:53.917Z,64.38
2022-10-04T17:10:34.234Z,65.79
2022-10-04T17:13:15.476Z,65.85
2022-10-04T17:16:05.324Z,64.68
2022-10-04T17:18:45.202Z,64.70
2022-10-04T17:21:35.141Z,66.36
2022-10-04T17:24:23.141Z,66.15
2022-10-04T17:27:05.820Z,65.73
2022-10-04T17:29:58.524Z,66.32
2022-10-04T17:32:32.013Z,65.54
2022-10-04T17:35:13.728Z,66.75
2022-10-04T17:37:50.838Z,66.38
2022-10-04T17:40:38.470Z,66.14
2022-10-04T17:43:19.795Z,67.24
2022-10-04T17:46:16.697Z,65.40
2022-10-04T17:49:05.907Z,67.48
2022-10-04T17:51:59.012Z,67.46
2022-10-04T17:54:51.192Z,65.78
2022-10-04T17:57:27.119Z,66.31
2022-10-04T18:00:06.760Z,65.67
2022-10-04T18:02:51.352Z,65.14
2022-10-04T18:05:22.543Z,65.67
2022-10-04T18:07:57.715Z,65.92
2022-10-04T18:10:30.768Z,66.06
2022-10-04T18:13:02.008Z,64.67
2022-10-04T18:15:34.840Z,65.76
2022-10-04T18:18:16.051Z,65.37
2022-10-04T18:21:07.906Z,64.43
2022-10-04T18:23:39.458Z,65.37
2022-10-04T18:26:12.870Z,64.60
2022-10-04T18:28:40.537Z,64.38
2022-10-04T18:31:30.296Z,65.04
2022-10-04T18:33:59.357Z,64.00
2022-10-04T18:36:31.912Z,64.29
2022-10-04T18:39:18.074Z,64.73
2022-10-04T18:41:56.802Z,64.83
2022-10-04T18:44:29.423Z,64.14
2022-10-04T18:46:58.828Z,64.88
2022-10-04T18:49:30.311Z,65.13
2022-10-04T18:52:09.976Z,64.63
2022-10-04T18:54:45.468Z,65.10
2022-10-04T18:57:26.171Z,64.66
2022-10-04T19:00:22.593Z,64.82
2022-10-04T19:02:59.888Z,65.56
2022-10-04T19:05:35.341Z,65.28
2022-10-04T19:08:09.506Z,64.62
2022-10-04T19:10:43.128Z,65.73
2022-10-04T19:13:28.547Z,65.39
2022-10-04T19:16:15.665Z,66.85
2022-10-04T19:18:59.228Z,65.88
2022-10-04T19:21:33.888Z,65.62
2022-10-04T19:24:28.752Z,65.70
2022-10-04T19:27:01.178Z,65.64
2022-10-04T19:29:44.204Z,66.18
2022-10-04T19:32:23.994Z,65.72
2022-10-04T19:35:01.737Z,66.26
2022-10-04T19:37:36.390Z,66.70
2022-10-04T19:40:10.984Z,66.42
2022-10-04T19:42:45.561Z,66.32
2022-10-04T19:45:25.033Z,65.81
2022-10-04T19:47:57.956Z,65.92
2022-10-04T19:50:29.271Z,66.28
2022-10-04T19:53:03.445Z,66.47
2022-10-04T19:55:43.904Z,67.34
2022-10-04T19:58:24.062Z,66.52
2022-10-04T20:00:54.164Z,67.38
2022-10-04T20:03:22.108Z,67.35
2022-10-04T20:05:53.235Z,67.11
2022-10-04T20:08:52.312Z,66.83
2022-10-04T20:11:22.847Z,67.61
2022-10-04T20:14:28.274Z,67.04
2022-10-04T20:17:07.309Z,67.44
2022-10-04T20:19:40.723Z,67.88
2022-10-04T20:22:28.364Z,67.75
2022-10-04T20:24:56.500Z,68.06
2022-10-04T20:27:57.712Z,67.51
2022-10-04T20:30:25.809Z,69.85
2022-10-04T20:32:57.112Z,68.62
2022-10-04T20:35:58.189Z,69.35
2022-10-04T20:38:44.346Z,68.56
2022-10-04T20:42:03.119Z,68.97
2022-10-04T20:44:46.273Z,68.54
2022-10-04T20:47:23.988Z,67.83
2022-10-04T20:49:56.823Z,68.38
2022-10-04T20:52:28.294Z,68.31
2022-10-04T20:54:57.264Z,68.65
2022-10-04T20:57:25.296Z,68.44
2022-10-04T20:59:55.594Z,68.38
2022-10-04T21:02:27.673Z,68.25
2022-10-04T21:05:13.555Z,68.43
2022-10-04T21:07:41.488Z,68.56
2022-10-04T21:10:18.586Z,68.42
2022-10-04T21:12:48.100Z,69.32
2022-10-04T21:15:24.104Z,68.66
2022-10-04T21:18:04.098Z,69.46
2022-10-04T21:20:47.149Z,69.24
2022-10-04T21:23:23.359Z,69.12
2022-10-04T21:25:51.547Z,68.97
2022-10-04T21:28:36.056Z,68.50
2022-10-04T21:31:04.998Z,69.09
2022-10-04T21:33:34.112Z,69.02
2022-10-04T21:36:04.172Z,69.10
2022-10-04T21:38:32.074Z,68.91
2022-10-04T21:40:59.895Z,69.36
2022-10-04T21:43:27.936Z,69.96
2022-10-04T21:45:55.970Z,68.87
2022-10-04T21:48:24.514Z,69.26
2022-10-04T21:50:54.883Z,69.57
2022-10-04T21:53:24.309Z,68.94
2022-10-04T21:55:52.163Z,69.54
2022-10-04T21:58:19.946Z,69.05
2022-10-04T22:00:47.753Z,68.86
2022-10-04T22:03:15.673Z,69.33
2022-10-04T22:05:43.514Z,69.49
2022-10-04T22:08:11.353Z,69.25
2022-10-04T22:10:41.010Z,69.37
2022-10-04T22:13:08.802Z,70.37
2022-10-04T22:15:36.885Z,69.29
2022-10-04T22:18:04.988Z,68.64
2022-10-04T22:20:33.430Z,69.24
2022-10-04T22:23:02.980Z,69.03
2022-10-04T22:25:30.816Z,69.60
2022-10-04T22:28:01.180Z,69.02
2022-10-04T22:30:31.163Z,69.38
2022-10-04T22:33:01.601Z,69.25
2022-10-04T22:35:33.781Z,70.21
2022-10-04T22:38:01.591Z,69.40
2022-10-04T22:40:29.835Z,69.17
2022-10-04T22:43:00.823Z,69.03
2022-10-04T22:45:33.398Z,69.75
2022-10-04T22:48:07.662Z,69.11
2022-10-04T22:50:37.961Z,70.98
2022-10-04T22:53:13.157Z,70.17
2022-10-04T22:55:41.182Z,70.57
2022-10-04T22:58:12.474Z,69.23
2022-10-04T23:00:41.911Z,69.73
2022-10-04T23:03:23.445Z,69.50
2022-10-04T23:05:51.380Z,69.81
2022-10-04T23:08:19.228Z,70.95
2022-10-04T23:10:47.353Z,70.05
2022-10-04T23:13:15.313Z,69.69
2022-10-04T23:15:44.504Z,69.52
2022-10-04T23:18:15.615Z,69.65
2022-10-04T23:20:44.466Z,70.19
2022-10-04T23:23:17.240Z,70.16
2022-10-04T23:25:47.085Z,70.10
2022-10-04T23:28:16.858Z,69.70
2022-10-04T23:30:49.227Z,69.08
2022-10-04T23:33:20.776Z,69.33
2022-10-04T23:35:49.645Z,69.65
2022-10-04T23:38:19.958Z,70.45
2022-10-04T23:40:47.964Z,69.90
2022-10-04T23:43:21.097Z,70.25
2022-10-04T23:45:50.393Z,70.83
2022-10-04T23:48:23.104Z,70.10
2022-10-04T23:50:51.863Z,69.57
2022-10-04T23:53:26.661Z,69.25
2022-10-04T23:55:56.090Z,70.79
2022-10-04T23:58:28.108Z,69.75
